sensor_id;sensor_type;location;lat;lon;timestamp;temperature;humidity
22917;DHT22;11624;53.250;7.456;2023-05-07T00:01:04;17.61;58.86
22917;DHT22;11624;53.250;7.456;2023-05-07T00:03:33;17.67;58.68
22917;DHT22;11624;53.250;7.456;2023-05-07T00:06:01;17.69;58.61
22917;DHT22;11624;53.250;7.456;2023-05-07T00:08:29;17.69;58.58
22917;DHT22;11624;53.250;7.456;2023-05-07T00:10:57;17.58;58.92
22917;DHT22;11624;53.250;7.456;2023-05-07T00:13:25;17.65;58.73
22917;DHT22;11624;53.250;7.456;2023-05-07T00:15:54;17.68;58.64
22917;DHT22;11624;53.250;7.456;2023-05-07T00:18:23;17.73;58.45
22917;DHT22;11624;53.250;7.456;2023-05-07T00:20:51;17.62;58.70
22917;DHT22;11624;53.250;7.456;2023-05-07T00:23:19;17.54;58.93
22917;DHT22;11624;53.250;7.456;2023-05-07T00:25:48;17.55;58.90
22917;DHT22;11624;53.250;7.456;2023-05-07T00:28:16;17.55;58.82
22917;DHT22;11624;53.250;7.456;2023-05-07T00:30:44;17.51;58.79
22917;DHT22;11624;53.250;7.456;2023-05-07T00:33:12;17.53;58.87
22917;DHT22;11624;53.250;7.456;2023-05-07T00:35:41;17.60;58.32
22917;DHT22;11624;53.250;7.456;2023-05-07T00:38:09;17.48;58.90
22917;DHT22;11624;53.250;7.456;2023-05-07T00:40:38;17.51;58.77
22917;DHT22;11624;53.250;7.456;2023-05-07T00:43:06;17.56;58.60
22917;DHT22;11624;53.250;7.456;2023-05-07T00:45:35;17.60;58.33
22917;DHT22;11624;53.250;7.456;2023-05-07T00:48:04;17.63;58.32
22917;DHT22;11624;53.250;7.456;2023-05-07T00:50:32;17.65;58.20
22917;DHT22;11624;53.250;7.456;2023-05-07T00:53:02;17.65;58.17
22917;DHT22;11624;53.250;7.456;2023-05-07T00:55:30;17.63;58.34
22917;DHT22;11624;53.250;7.456;2023-05-07T00:57:58;17.61;58.32
22917;DHT22;11624;53.250;7.456;2023-05-07T01:00:27;17.54;58.29
22917;DHT22;11624;53.250;7.456;2023-05-07T01:02:55;17.53;58.34
22917;DHT22;11624;53.250;7.456;2023-05-07T01:05:25;17.46;58.51
22917;DHT22;11624;53.250;7.456;2023-05-07T01:07:55;17.52;58.33
22917;DHT22;11624;53.250;7.456;2023-05-07T01:10:25;17.51;58.33
22917;DHT22;11624;53.250;7.456;2023-05-07T01:12:54;17.53;58.38
22917;DHT22;11624;53.250;7.456;2023-05-07T01:15:22;17.56;58.15
22917;DHT22;11624;53.250;7.456;2023-05-07T01:17:50;17.51;58.16
22917;DHT22;11624;53.250;7.456;2023-05-07T01:20:27;17.48;58.22
22917;DHT22;11624;53.250;7.456;2023-05-07T01:22:59;17.47;58.03
22917;DHT22;11624;53.250;7.456;2023-05-07T01:25:28;17.47;57.90
22917;DHT22;11624;53.250;7.456;2023-05-07T01:27:59;17.46;58.22
22917;DHT22;11624;53.250;7.456;2023-05-07T01:30:33;17.47;57.77
22917;DHT22;11624;53.250;7.456;2023-05-07T01:33:08;17.48;57.86
22917;DHT22;11624;53.250;7.456;2023-05-07T01:35:39;17.52;57.87
22917;DHT22;11624;53.250;7.456;2023-05-07T01:38:09;17.50;57.88
22917;DHT22;11624;53.250;7.456;2023-05-07T01:40:38;17.50;58.02
22917;DHT22;11624;53.250;7.456;2023-05-07T01:43:06;17.52;57.94
22917;DHT22;11624;53.250;7.456;2023-05-07T01:45:36;17.58;57.82
22917;DHT22;11624;53.250;7.456;2023-05-07T01:48:05;17.56;57.79
22917;DHT22;11624;53.250;7.456;2023-05-07T01:50:34;17.52;57.88
22917;DHT22;11624;53.250;7.456;2023-05-07T01:53:03;17.51;57.93
22917;DHT22;11624;53.250;7.456;2023-05-07T01:55:32;17.46;58.00
22917;DHT22;11624;53.250;7.456;2023-05-07T01:58:00;17.48;57.96
22917;DHT22;11624;53.250;7.456;2023-05-07T02:00:29;17.41;58.06
22917;DHT22;11624;53.250;7.456;2023-05-07T02:02:57;17.43;57.93
22917;DHT22;11624;53.250;7.456;2023-05-07T02:05:34;17.31;58.16
22917;DHT22;11624;53.250;7.456;2023-05-07T02:08:09;17.33;58.20
22917;DHT22;11624;53.250;7.456;2023-05-07T02:10:39;17.23;58.32
22917;DHT22;11624;53.250;7.456;2023-05-07T02:13:07;17.35;58.16
22917;DHT22;11624;53.250;7.456;2023-05-07T02:15:35;17.40;58.00
22917;DHT22;11624;53.250;7.456;2023-05-07T02:18:05;17.34;58.09
22917;DHT22;11624;53.250;7.456;2023-05-07T02:20:34;17.30;58.15
22917;DHT22;11624;53.250;7.456;2023-05-07T02:23:02;17.35;58.00
22917;DHT22;11624;53.250;7.456;2023-05-07T02:25:30;17.36;58.03
22917;DHT22;11624;53.250;7.456;2023-05-07T02:28:00;17.39;57.93
22917;DHT22;11624;53.250;7.456;2023-05-07T02:30:48;17.38;57.74
22917;DHT22;11624;53.250;7.456;2023-05-07T02:33:17;17.24;57.81
22917;DHT22;11624;53.250;7.456;2023-05-07T02:35:46;17.08;57.80
22917;DHT22;11624;53.250;7.456;2023-05-07T02:38:15;17.02;57.96
22917;DHT22;11624;53.250;7.456;2023-05-07T02:40:43;16.94;57.85
22917;DHT22;11624;53.250;7.456;2023-05-07T02:43:13;16.86;57.91
22917;DHT22;11624;53.250;7.456;2023-05-07T02:45:44;16.98;57.61
22917;DHT22;11624;53.250;7.456;2023-05-07T02:48:13;16.86;57.80
22917;DHT22;11624;53.250;7.456;2023-05-07T02:50:42;16.91;57.26
22917;DHT22;11624;53.250;7.456;2023-05-07T02:53:12;16.98;57.37
22917;DHT22;11624;53.250;7.456;2023-05-07T02:55:40;17.00;57.40
22917;DHT22;11624;53.250;7.456;2023-05-07T02:58:08;16.91;57.59
22917;DHT22;11624;53.250;7.456;2023-05-07T03:00:39;16.88;57.61
22917;DHT22;11624;53.250;7.456;2023-05-07T03:03:28;16.91;57.58
22917;DHT22;11624;53.250;7.456;2023-05-07T03:05:56;16.98;57.47
22917;DHT22;11624;53.250;7.456;2023-05-07T03:08:24;16.98;57.51
22917;DHT22;11624;53.250;7.456;2023-05-07T03:10:52;16.95;57.56
22917;DHT22;11624;53.250;7.456;2023-05-07T03:13:20;16.91;57.62
22917;DHT22;11624;53.250;7.456;2023-05-07T03:15:50;16.88;57.64
22917;DHT22;11624;53.250;7.456;2023-05-07T03:18:18;16.85;57.67
22917;DHT22;11624;53.250;7.456;2023-05-07T03:20:48;16.76;57.84
22917;DHT22;11624;53.250;7.456;2023-05-07T03:23:17;16.76;57.90
22917;DHT22;11624;53.250;7.456;2023-05-07T03:25:46;16.77;57.86
22917;DHT22;11624;53.250;7.456;2023-05-07T03:28:14;16.69;58.11
22917;DHT22;11624;53.250;7.456;2023-05-07T03:30:49;16.72;57.99
22917;DHT22;11624;53.250;7.456;2023-05-07T03:33:18;16.65;58.17
22917;DHT22;11624;53.250;7.456;2023-05-07T03:35:47;16.69;58.06
22917;DHT22;11624;53.250;7.456;2023-05-07T03:38:20;16.63;58.17
22917;DHT22;11624;53.250;7.456;2023-05-07T03:40:48;16.64;58.34
22917;DHT22;11624;53.250;7.456;2023-05-07T03:43:17;16.72;58.22
22917;DHT22;11624;53.250;7.456;2023-05-07T03:45:51;16.66;58.26
22917;DHT22;11624;53.250;7.456;2023-05-07T03:48:23;16.67;58.32
22917;DHT22;11624;53.250;7.456;2023-05-07T03:50:54;16.65;58.38
22917;DHT22;11624;53.250;7.456;2023-05-07T03:53:22;16.62;58.46
22917;DHT22;11624;53.250;7.456;2023-05-07T03:55:50;16.62;58.45
22917;DHT22;11624;53.250;7.456;2023-05-07T03:58:19;16.59;58.42
22917;DHT22;11624;53.250;7.456;2023-05-07T04:00:47;16.56;58.51
22917;DHT22;11624;53.250;7.456;2023-05-07T04:03:27;16.41;58.67
22917;DHT22;11624;53.250;7.456;2023-05-07T04:05:58;16.43;58.54
22917;DHT22;11624;53.250;7.456;2023-05-07T04:08:26;16.43;58.45
22917;DHT22;11624;53.250;7.456;2023-05-07T04:10:55;16.41;58.53
22917;DHT22;11624;53.250;7.456;2023-05-07T04:13:25;16.35;58.38
22917;DHT22;11624;53.250;7.456;2023-05-07T04:15:55;16.34;58.36
22917;DHT22;11624;53.250;7.456;2023-05-07T04:18:24;16.32;58.23
22917;DHT22;11624;53.250;7.456;2023-05-07T04:20:54;16.31;57.91
22917;DHT22;11624;53.250;7.456;2023-05-07T04:23:22;16.26;58.09
22917;DHT22;11624;53.250;7.456;2023-05-07T04:25:51;16.30;57.93
22917;DHT22;11624;53.250;7.456;2023-05-07T04:28:30;16.19;58.08
22917;DHT22;11624;53.250;7.456;2023-05-07T04:30:58;16.12;58.22
22917;DHT22;11624;53.250;7.456;2023-05-07T04:33:27;16.18;58.07
22917;DHT22;11624;53.250;7.456;2023-05-07T04:35:58;16.12;58.15
22917;DHT22;11624;53.250;7.456;2023-05-07T04:38:31;15.95;58.39
22917;DHT22;11624;53.250;7.456;2023-05-07T04:41:03;16.04;58.30
22917;DHT22;11624;53.250;7.456;2023-05-07T04:43:34;16.14;58.05
22917;DHT22;11624;53.250;7.456;2023-05-07T04:46:03;16.17;58.06
22917;DHT22;11624;53.250;7.456;2023-05-07T04:48:31;16.24;57.96
22917;DHT22;11624;53.250;7.456;2023-05-07T04:51:02;16.22;57.90
22917;DHT22;11624;53.250;7.456;2023-05-07T04:53:30;16.11;58.10
22917;DHT22;11624;53.250;7.456;2023-05-07T04:55:58;16.19;57.93
22917;DHT22;11624;53.250;7.456;2023-05-07T04:58:32;16.01;58.19
22917;DHT22;11624;53.250;7.456;2023-05-07T05:01:00;16.04;58.21
22917;DHT22;11624;53.250;7.456;2023-05-07T05:03:29;16.11;58.17
22917;DHT22;11624;53.250;7.456;2023-05-07T05:05:58;16.21;57.91
22917;DHT22;11624;53.250;7.456;2023-05-07T05:08:32;16.25;57.77
22917;DHT22;11624;53.250;7.456;2023-05-07T05:11:02;16.31;57.62
22917;DHT22;11624;53.250;7.456;2023-05-07T05:13:33;16.24;57.63
22917;DHT22;11624;53.250;7.456;2023-05-07T05:16:07;16.20;57.72
22917;DHT22;11624;53.250;7.456;2023-05-07T05:18:36;16.24;57.67
22917;DHT22;11624;53.250;7.456;2023-05-07T05:21:05;16.25;57.73
22917;DHT22;11624;53.250;7.456;2023-05-07T05:23:34;16.32;57.53
22917;DHT22;11624;53.250;7.456;2023-05-07T05:26:03;16.17;57.69
22917;DHT22;11624;53.250;7.456;2023-05-07T05:28:32;16.17;57.90
22917;DHT22;11624;53.250;7.456;2023-05-07T05:31:02;16.25;57.67
22917;DHT22;11624;53.250;7.456;2023-05-07T05:33:33;16.35;57.48
22917;DHT22;11624;53.250;7.456;2023-05-07T05:36:04;16.34;57.61
22917;DHT22;11624;53.250;7.456;2023-05-07T05:38:34;16.34;57.50
22917;DHT22;11624;53.250;7.456;2023-05-07T05:41:03;16.42;57.47
22917;DHT22;11624;53.250;7.456;2023-05-07T05:43:31;16.46;57.38
22917;DHT22;11624;53.250;7.456;2023-05-07T05:45:59;16.46;57.41
22917;DHT22;11624;53.250;7.456;2023-05-07T05:48:29;16.34;57.49
22917;DHT22;11624;53.250;7.456;2023-05-07T05:51:00;16.37;57.67
22917;DHT22;11624;53.250;7.456;2023-05-07T05:53:28;16.40;57.59
22917;DHT22;11624;53.250;7.456;2023-05-07T05:55:57;16.43;57.45
22917;DHT22;11624;53.250;7.456;2023-05-07T05:58:26;16.35;57.64
22917;DHT22;11624;53.250;7.456;2023-05-07T06:00:59;16.39;57.62
22917;DHT22;11624;53.250;7.456;2023-05-07T06:03:29;16.42;57.57
22917;DHT22;11624;53.250;7.456;2023-05-07T06:06:02;16.46;57.55
22917;DHT22;11624;53.250;7.456;2023-05-07T06:08:30;16.44;57.50
22917;DHT22;11624;53.250;7.456;2023-05-07T06:11:01;16.50;57.47
22917;DHT22;11624;53.250;7.456;2023-05-07T06:13:31;16.56;57.43
22917;DHT22;11624;53.250;7.456;2023-05-07T06:16:00;16.56;57.44
22917;DHT22;11624;53.250;7.456;2023-05-07T06:18:28;16.58;57.43
22917;DHT22;11624;53.250;7.456;2023-05-07T06:20:57;16.59;57.41
22917;DHT22;11624;53.250;7.456;2023-05-07T06:23:29;16.62;57.34
22917;DHT22;11624;53.250;7.456;2023-05-07T06:26:00;16.48;57.59
22917;DHT22;11624;53.250;7.456;2023-05-07T06:28:33;16.48;57.66
22917;DHT22;11624;53.250;7.456;2023-05-07T06:31:12;16.44;57.35
22917;DHT22;11624;53.250;7.456;2023-05-07T06:33:43;16.57;57.64
22917;DHT22;11624;53.250;7.456;2023-05-07T06:36:12;16.65;57.61
22917;DHT22;11624;53.250;7.456;2023-05-07T06:38:42;16.73;57.36
22917;DHT22;11624;53.250;7.456;2023-05-07T06:41:11;16.77;57.21
22917;DHT22;11624;53.250;7.456;2023-05-07T06:43:40;16.70;57.07
22917;DHT22;11624;53.250;7.456;2023-05-07T06:46:26;16.65;57.55
22917;DHT22;11624;53.250;7.456;2023-05-07T06:48:55;16.78;57.27
22917;DHT22;11624;53.250;7.456;2023-05-07T06:51:24;16.72;57.26
22917;DHT22;11624;53.250;7.456;2023-05-07T06:53:54;16.73;57.24
22917;DHT22;11624;53.250;7.456;2023-05-07T06:56:23;16.74;57.14
22917;DHT22;11624;53.250;7.456;2023-05-07T06:58:53;16.76;57.21
22917;DHT22;11624;53.250;7.456;2023-05-07T07:01:21;16.76;57.29
22917;DHT22;11624;53.250;7.456;2023-05-07T07:03:49;16.87;57.15
22917;DHT22;11624;53.250;7.456;2023-05-07T07:06:19;16.93;56.97
22917;DHT22;11624;53.250;7.456;2023-05-07T07:08:47;16.92;56.82
22917;DHT22;11624;53.250;7.456;2023-05-07T07:11:17;16.74;56.99
22917;DHT22;11624;53.250;7.456;2023-05-07T07:13:46;16.90;56.74
22917;DHT22;11624;53.250;7.456;2023-05-07T07:16:15;16.96;56.81
22917;DHT22;11624;53.250;7.456;2023-05-07T07:18:44;16.94;56.51
22917;DHT22;11624;53.250;7.456;2023-05-07T07:21:13;16.94;56.59
22917;DHT22;11624;53.250;7.456;2023-05-07T07:23:42;17.06;56.49
22917;DHT22;11624;53.250;7.456;2023-05-07T07:26:10;17.09;56.39
22917;DHT22;11624;53.250;7.456;2023-05-07T07:28:42;17.16;55.81
22917;DHT22;11624;53.250;7.456;2023-05-07T07:31:15;17.13;56.26
22917;DHT22;11624;53.250;7.456;2023-05-07T07:33:44;17.20;56.03
22917;DHT22;11624;53.250;7.456;2023-05-07T07:36:12;17.13;56.11
22917;DHT22;11624;53.250;7.456;2023-05-07T07:38:40;17.17;56.16
22917;DHT22;11624;53.250;7.456;2023-05-07T07:41:08;17.23;55.81
22917;DHT22;11624;53.250;7.456;2023-05-07T07:43:37;17.25;55.88
22917;DHT22;11624;53.250;7.456;2023-05-07T07:46:05;17.43;55.51
22917;DHT22;11624;53.250;7.456;2023-05-07T07:48:35;17.46;55.20
22917;DHT22;11624;53.250;7.456;2023-05-07T07:51:03;17.56;55.32
22917;DHT22;11624;53.250;7.456;2023-05-07T07:53:32;17.68;55.15
22917;DHT22;11624;53.250;7.456;2023-05-07T07:56:01;17.73;55.03
22917;DHT22;11624;53.250;7.456;2023-05-07T07:58:33;17.84;54.86
22917;DHT22;11624;53.250;7.456;2023-05-07T08:01:03;17.96;54.71
22917;DHT22;11624;53.250;7.456;2023-05-07T08:03:31;18.02;54.27
22917;DHT22;11624;53.250;7.456;2023-05-07T08:06:03;17.98;53.93
22917;DHT22;11624;53.250;7.456;2023-05-07T08:08:34;17.98;54.04
22917;DHT22;11624;53.250;7.456;2023-05-07T08:11:02;17.91;53.77
22917;DHT22;11624;53.250;7.456;2023-05-07T08:13:33;17.94;54.03
22917;DHT22;11624;53.250;7.456;2023-05-07T08:16:02;17.95;53.91
22917;DHT22;11624;53.250;7.456;2023-05-07T08:18:30;18.02;53.62
22917;DHT22;11624;53.250;7.456;2023-05-07T08:21:02;18.08;53.28
22917;DHT22;11624;53.250;7.456;2023-05-07T08:23:31;18.11;53.23
22917;DHT22;11624;53.250;7.456;2023-05-07T08:26:01;18.14;53.21
22917;DHT22;11624;53.250;7.456;2023-05-07T08:28:29;18.18;52.96
22917;DHT22;11624;53.250;7.456;2023-05-07T08:30:58;18.20;52.96
22917;DHT22;11624;53.250;7.456;2023-05-07T08:33:32;18.24;52.81
22917;DHT22;11624;53.250;7.456;2023-05-07T08:36:00;18.17;52.87
22917;DHT22;11624;53.250;7.456;2023-05-07T08:38:30;18.19;52.75
22917;DHT22;11624;53.250;7.456;2023-05-07T08:40:59;18.26;52.65
22917;DHT22;11624;53.250;7.456;2023-05-07T08:43:29;18.26;52.52
22917;DHT22;11624;53.250;7.456;2023-05-07T08:46:00;18.32;52.69
22917;DHT22;11624;53.250;7.456;2023-05-07T08:48:33;18.43;52.44
22917;DHT22;11624;53.250;7.456;2023-05-07T08:51:12;18.57;51.68
22917;DHT22;11624;53.250;7.456;2023-05-07T08:53:42;18.61;52.05
22917;DHT22;11624;53.250;7.456;2023-05-07T08:56:15;18.44;51.51
22917;DHT22;11624;53.250;7.456;2023-05-07T08:58:43;18.41;51.63
22917;DHT22;11624;53.250;7.456;2023-05-07T09:01:15;18.37;51.92
22917;DHT22;11624;53.250;7.456;2023-05-07T09:03:47;18.55;51.79
22917;DHT22;11624;53.250;7.456;2023-05-07T09:06:15;18.62;51.40
22917;DHT22;11624;53.250;7.456;2023-05-07T09:08:49;18.58;51.47
22917;DHT22;11624;53.250;7.456;2023-05-07T09:11:20;18.76;51.48
22917;DHT22;11624;53.250;7.456;2023-05-07T09:13:53;18.49;51.57
22917;DHT22;11624;53.250;7.456;2023-05-07T09:16:24;18.66;52.12
22917;DHT22;11624;53.250;7.456;2023-05-07T09:18:55;18.83;51.40
22917;DHT22;11624;53.250;7.456;2023-05-07T09:21:23;19.07;51.04
22917;DHT22;11624;53.250;7.456;2023-05-07T09:23:55;19.31;50.63
22917;DHT22;11624;53.250;7.456;2023-05-07T09:26:31;19.46;50.51
22917;DHT22;11624;53.250;7.456;2023-05-07T09:29:01;19.63;49.60
22917;DHT22;11624;53.250;7.456;2023-05-07T09:31:29;19.71;49.25
22917;DHT22;11624;53.250;7.456;2023-05-07T09:33:58;19.69;48.54
22917;DHT22;11624;53.250;7.456;2023-05-07T09:36:31;19.88;48.82
22917;DHT22;11624;53.250;7.456;2023-05-07T09:39:01;20.05;48.03
22917;DHT22;11624;53.250;7.456;2023-05-07T09:41:30;20.17;48.08
22917;DHT22;11624;53.250;7.456;2023-05-07T09:44:06;20.24;48.14
22917;DHT22;11624;53.250;7.456;2023-05-07T09:46:42;20.10;47.40
22917;DHT22;11624;53.250;7.456;2023-05-07T09:49:21;20.11;47.97
22917;DHT22;11624;53.250;7.456;2023-05-07T09:51:54;20.28;47.44
22917;DHT22;11624;53.250;7.456;2023-05-07T09:54:26;20.42;47.92
22917;DHT22;11624;53.250;7.456;2023-05-07T09:56:58;20.61;47.39
22917;DHT22;11624;53.250;7.456;2023-05-07T09:59:31;20.88;47.70
22917;DHT22;11624;53.250;7.456;2023-05-07T10:02:03;21.11;46.47
22917;DHT22;11624;53.250;7.456;2023-05-07T10:04:40;21.04;45.67
22917;DHT22;11624;53.250;7.456;2023-05-07T10:07:09;20.92;46.16
22917;DHT22;11624;53.250;7.456;2023-05-07T10:09:39;20.96;45.56
22917;DHT22;11624;53.250;7.456;2023-05-07T10:12:16;21.05;46.25
22917;DHT22;11624;53.250;7.456;2023-05-07T10:14:46;21.29;46.04
22917;DHT22;11624;53.250;7.456;2023-05-07T10:17:16;21.64;45.48
22917;DHT22;11624;53.250;7.456;2023-05-07T10:19:46;21.61;44.43
22917;DHT22;11624;53.250;7.456;2023-05-07T10:22:16;21.53;44.11
22917;DHT22;11624;53.250;7.456;2023-05-07T10:24:49;21.43;44.96
22917;DHT22;11624;53.250;7.456;2023-05-07T10:27:21;21.23;44.79
22917;DHT22;11624;53.250;7.456;2023-05-07T10:30:16;21.21;45.15
22917;DHT22;11624;53.250;7.456;2023-05-07T10:32:50;21.22;44.54
22917;DHT22;11624;53.250;7.456;2023-05-07T10:35:32;21.19;45.44
22917;DHT22;11624;53.250;7.456;2023-05-07T10:38:04;21.23;44.67
22917;DHT22;11624;53.250;7.456;2023-05-07T10:40:36;21.38;44.44
22917;DHT22;11624;53.250;7.456;2023-05-07T10:43:06;21.57;44.57
22917;DHT22;11624;53.250;7.456;2023-05-07T10:46:13;21.49;44.29
22917;DHT22;11624;53.250;7.456;2023-05-07T10:49:08;21.51;44.06
22917;DHT22;11624;53.250;7.456;2023-05-07T10:52:10;21.64;43.77
22917;DHT22;11624;53.250;7.456;2023-05-07T10:54:40;21.78;44.78
22917;DHT22;11624;53.250;7.456;2023-05-07T10:57:35;22.09;43.87
22917;DHT22;11624;53.250;7.456;2023-05-07T11:00:42;22.69;42.40
22917;DHT22;11624;53.250;7.456;2023-05-07T11:03:19;22.48;41.94
22917;DHT22;11624;53.250;7.456;2023-05-07T11:06:11;22.71;42.40
22917;DHT22;11624;53.250;7.456;2023-05-07T11:08:59;23.02;42.29
22917;DHT22;11624;53.250;7.456;2023-05-07T11:11:45;23.42;41.16
22917;DHT22;11624;53.250;7.456;2023-05-07T11:14:46;23.15;39.94
22917;DHT22;11624;53.250;7.456;2023-05-07T11:17:21;22.92;41.81
22917;DHT22;11624;53.250;7.456;2023-05-07T11:19:57;23.51;41.81
22917;DHT22;11624;53.250;7.456;2023-05-07T11:22:51;23.94;39.67
22917;DHT22;11624;53.250;7.456;2023-05-07T11:25:22;23.55;39.99
22917;DHT22;11624;53.250;7.456;2023-05-07T11:28:07;23.87;39.87
22917;DHT22;11624;53.250;7.456;2023-05-07T11:30:43;24.25;39.52
22917;DHT22;11624;53.250;7.456;2023-05-07T11:33:17;24.60;38.30
22917;DHT22;11624;53.250;7.456;2023-05-07T11:35:48;24.77;38.66
22917;DHT22;11624;53.250;7.456;2023-05-07T11:38:18;24.90;38.46
22917;DHT22;11624;53.250;7.456;2023-05-07T11:40:50;24.84;38.02
22917;DHT22;11624;53.250;7.456;2023-05-07T11:43:18;24.10;38.36
22917;DHT22;11624;53.250;7.456;2023-05-07T11:45:48;24.27;39.27
22917;DHT22;11624;53.250;7.456;2023-05-07T11:48:16;24.27;38.78
22917;DHT22;11624;53.250;7.456;2023-05-07T11:50:51;24.46;39.10
22917;DHT22;11624;53.250;7.456;2023-05-07T11:53:19;24.80;38.79
22917;DHT22;11624;53.250;7.456;2023-05-07T11:55:47;24.69;37.98
22917;DHT22;11624;53.250;7.456;2023-05-07T11:58:21;24.61;39.32
22917;DHT22;11624;53.250;7.456;2023-05-07T12:00:51;25.07;37.93
22917;DHT22;11624;53.250;7.456;2023-05-07T12:03:20;25.37;37.49
22917;DHT22;11624;53.250;7.456;2023-05-07T12:05:48;25.95;37.24
22917;DHT22;11624;53.250;7.456;2023-05-07T12:08:17;26.64;36.30
22917;DHT22;11624;53.250;7.456;2023-05-07T12:10:48;26.55;33.84
22917;DHT22;11624;53.250;7.456;2023-05-07T12:13:16;26.46;34.66
22917;DHT22;11624;53.250;7.456;2023-05-07T12:15:45;26.77;34.83
22917;DHT22;11624;53.250;7.456;2023-05-07T12:18:14;26.48;34.48
22917;DHT22;11624;53.250;7.456;2023-05-07T12:20:43;27.00;35.39
22917;DHT22;11624;53.250;7.456;2023-05-07T12:23:11;26.60;33.02
22917;DHT22;11624;53.250;7.456;2023-05-07T12:25:41;26.51;34.14
22917;DHT22;11624;53.250;7.456;2023-05-07T12:28:21;26.69;34.11
22917;DHT22;11624;53.250;7.456;2023-05-07T12:30:53;26.53;33.73
22917;DHT22;11624;53.250;7.456;2023-05-07T12:33:28;25.90;34.49
22917;DHT22;11624;53.250;7.456;2023-05-07T12:36:03;26.07;35.40
22917;DHT22;11624;53.250;7.456;2023-05-07T12:38:38;26.71;34.73
22917;DHT22;11624;53.250;7.456;2023-05-07T12:41:15;26.97;32.88
22917;DHT22;11624;53.250;7.456;2023-05-07T12:43:56;26.51;33.32
22917;DHT22;11624;53.250;7.456;2023-05-07T12:46:31;25.97;34.36
22917;DHT22;11624;53.250;7.456;2023-05-07T12:49:06;25.73;35.65
22917;DHT22;11624;53.250;7.456;2023-05-07T12:51:36;25.86;35.02
22917;DHT22;11624;53.250;7.456;2023-05-07T12:54:08;25.75;36.12
22917;DHT22;11624;53.250;7.456;2023-05-07T12:56:39;25.69;35.79
22917;DHT22;11624;53.250;7.456;2023-05-07T12:59:09;25.56;36.00
22917;DHT22;11624;53.250;7.456;2023-05-07T13:01:44;25.61;36.26
22917;DHT22;11624;53.250;7.456;2023-05-07T13:04:24;26.05;36.24
22917;DHT22;11624;53.250;7.456;2023-05-07T13:06:55;26.26;36.26
22917;DHT22;11624;53.250;7.456;2023-05-07T13:09:27;26.87;35.34
22917;DHT22;11624;53.250;7.456;2023-05-07T13:12:00;27.35;34.37
22917;DHT22;11624;53.250;7.456;2023-05-07T13:14:29;27.71;33.20
22917;DHT22;11624;53.250;7.456;2023-05-07T13:16:59;27.82;32.80
22917;DHT22;11624;53.250;7.456;2023-05-07T13:19:32;27.87;33.16
22917;DHT22;11624;53.250;7.456;2023-05-07T13:22:08;27.84;32.56
22917;DHT22;11624;53.250;7.456;2023-05-07T13:24:42;27.41;32.41
22917;DHT22;11624;53.250;7.456;2023-05-07T13:27:17;27.46;33.44
22917;DHT22;11624;53.250;7.456;2023-05-07T13:29:51;27.81;32.58
22917;DHT22;11624;53.250;7.456;2023-05-07T13:32:20;27.75;32.44
22917;DHT22;11624;53.250;7.456;2023-05-07T13:34:55;28.03;33.18
22917;DHT22;11624;53.250;7.456;2023-05-07T13:37:25;28.29;32.78
22917;DHT22;11624;53.250;7.456;2023-05-07T13:39:56;28.25;31.96
22917;DHT22;11624;53.250;7.456;2023-05-07T13:42:30;28.23;31.64
22917;DHT22;11624;53.250;7.456;2023-05-07T13:45:02;27.97;32.40
22917;DHT22;11624;53.250;7.456;2023-05-07T13:47:40;28.16;31.38
22917;DHT22;11624;53.250;7.456;2023-05-07T13:50:20;28.03;32.28
22917;DHT22;11624;53.250;7.456;2023-05-07T13:52:50;27.75;32.23
22917;DHT22;11624;53.250;7.456;2023-05-07T13:55:23;27.65;33.09
22917;DHT22;11624;53.250;7.456;2023-05-07T13:58:02;27.58;32.48
22917;DHT22;11624;53.250;7.456;2023-05-07T14:00:39;27.80;33.37
22917;DHT22;11624;53.250;7.456;2023-05-07T14:03:16;27.93;32.44
22917;DHT22;11624;53.250;7.456;2023-05-07T14:05:50;27.81;32.10
22917;DHT22;11624;53.250;7.456;2023-05-07T14:08:22;27.29;32.42
22917;DHT22;11624;53.250;7.456;2023-05-07T14:10:53;26.80;33.69
22917;DHT22;11624;53.250;7.456;2023-05-07T14:13:25;26.99;34.09
22917;DHT22;11624;53.250;7.456;2023-05-07T14:15:56;26.61;34.21
22917;DHT22;11624;53.250;7.456;2023-05-07T14:18:26;26.47;35.21
22917;DHT22;11624;53.250;7.456;2023-05-07T14:21:01;26.67;34.81
22917;DHT22;11624;53.250;7.456;2023-05-07T14:23:30;26.53;33.76
22917;DHT22;11624;53.250;7.456;2023-05-07T14:26:03;26.46;35.11
22917;DHT22;11624;53.250;7.456;2023-05-07T14:28:33;26.85;34.53
22917;DHT22;11624;53.250;7.456;2023-05-07T14:31:02;27.27;33.98
22917;DHT22;11624;53.250;7.456;2023-05-07T14:33:35;27.52;34.31
22917;DHT22;11624;53.250;7.456;2023-05-07T14:36:09;27.72;33.47
22917;DHT22;11624;53.250;7.456;2023-05-07T14:38:39;27.80;33.65
22917;DHT22;11624;53.250;7.456;2023-05-07T14:41:15;27.87;33.60
22917;DHT22;11624;53.250;7.456;2023-05-07T14:43:48;27.81;33.39
22917;DHT22;11624;53.250;7.456;2023-05-07T14:46:19;27.81;33.36
22917;DHT22;11624;53.250;7.456;2023-05-07T14:48:49;27.39;33.73
22917;DHT22;11624;53.250;7.456;2023-05-07T14:51:20;27.55;34.31
22917;DHT22;11624;53.250;7.456;2023-05-07T14:53:53;27.46;33.58
22917;DHT22;11624;53.250;7.456;2023-05-07T14:56:49;27.70;33.71
22917;DHT22;11624;53.250;7.456;2023-05-07T14:59:18;27.67;33.42
22917;DHT22;11624;53.250;7.456;2023-05-07T15:01:48;27.67;33.30
22917;DHT22;11624;53.250;7.456;2023-05-07T15:04:16;27.61;33.94
22917;DHT22;11624;53.250;7.456;2023-05-07T15:06:45;27.64;33.76
22917;DHT22;11624;53.250;7.456;2023-05-07T15:09:14;27.63;33.80
22917;DHT22;11624;53.250;7.456;2023-05-07T15:11:42;27.60;33.40
22917;DHT22;11624;53.250;7.456;2023-05-07T15:14:10;27.70;33.96
22917;DHT22;11624;53.250;7.456;2023-05-07T15:16:38;27.88;33.01
22917;DHT22;11624;53.250;7.456;2023-05-07T15:19:06;28.03;33.28
22917;DHT22;11624;53.250;7.456;2023-05-07T15:21:35;27.96;32.57
22917;DHT22;11624;53.250;7.456;2023-05-07T15:24:05;27.75;32.88
22917;DHT22;11624;53.250;7.456;2023-05-07T15:26:36;27.56;33.23
22917;DHT22;11624;53.250;7.456;2023-05-07T15:29:04;27.55;33.83
22917;DHT22;11624;53.250;7.456;2023-05-07T15:31:37;27.59;33.47
22917;DHT22;11624;53.250;7.456;2023-05-07T15:34:06;27.35;34.03
22917;DHT22;11624;53.250;7.456;2023-05-07T15:36:34;27.11;34.50
22917;DHT22;11624;53.250;7.456;2023-05-07T15:39:02;27.13;34.29
22917;DHT22;11624;53.250;7.456;2023-05-07T15:41:32;27.28;34.15
22917;DHT22;11624;53.250;7.456;2023-05-07T15:44:00;27.31;33.93
22917;DHT22;11624;53.250;7.456;2023-05-07T15:46:30;27.47;33.92
22917;DHT22;11624;53.250;7.456;2023-05-07T15:49:01;27.63;33.83
22917;DHT22;11624;53.250;7.456;2023-05-07T15:51:29;27.58;33.63
22917;DHT22;11624;53.250;7.456;2023-05-07T15:53:57;27.47;33.90
22917;DHT22;11624;53.250;7.456;2023-05-07T15:56:26;27.29;32.85